Costa Luminosa — ICGU — position and weather

sailwx.info

Track history (hours):
 
Tides and Currents Weather Stations Pressure Air Temp Water Temp Dewpoint Dewpoint Depression Visibility Wind Speed Wind Dir Waves Ship Positions

Costa Luminosa

Last reported at 2017-Jun-23 18:53 UTC. Time now 2017-Jun-23 19:00 UTC.
Position N 43°19' E 015°16'.

Length 294 m; draft 8 m.

Type: Passenger vessel. MMSI: 247257900.

Date/timePositionNaut miles runAvg speedWind from/ knotsBaromVisibWave heightAir tempDewpointWater temp
2017-Jun-23 18:53N 43°19' E 015°16'1219.0
2017-Jun-23 18:16N 43°13' E 015°30'719.3
2017-Jun-23 17:54N 43°09' E 015°38'1019.1
2017-Jun-23 17:21N 43°03' E 015°50'819.2
2017-Jun-23 16:55N 42°56' E 015°57'919.0
2017-Jun-23 16:28N 42°51' E 016°06'918.8
2017-Jun-23 16:00N 42°47' E 016°16'1018.8
2017-Jun-23 15:28N 42°42' E 016°28'919.0
2017-Jun-23 14:59N 42°40' E 016°41'1918.9
2017-Jun-23 13:57N 42°39' E 017°07'129 8.1
2017-Jun-22 22:02N 40°54' E 018°47'619.3
2017-Jun-22 21:43N 40°48' E 018°49'419.3
2017-Jun-22 21:30N 40°44' E 018°51'918.6
2017-Jun-22 21:01N 40°35' E 018°54'1019.0
2017-Jun-22 20:31N 40°26' E 018°57'2418.7
2017-Jun-22 19:14N 40°03' E 019°07'918.2
2017-Jun-22 18:45N 39°55' E 019°11'518.4
2017-Jun-22 18:29N 39°50' E 019°13'918.3
2017-Jun-22 18:00N 39°42' E 019°17'5218.4
2017-Jun-22 15:10N 38°53' E 019°40'318.3
2017-Jun-22 15:01N 38°51' E 019°42'918.3
2017-Jun-22 14:30N 38°42' E 019°45'1918.9
2017-Jun-22 13:30N 38°24' E 019°54'918.4
2017-Jun-22 13:00N 38°16' E 019°58'2818.5
2017-Jun-22 11:31N 37°50' E 020°10'019.4
2017-Jun-22 11:30N 37°50' E 020°10'1918.7
2017-Jun-22 10:30N 37°32' E 020°19'12118.8
2017-Jun-22 04:03N 36°20' E 022°21'118.7
2017-Jun-22 03:58N 36°19' E 022°22'12918.4
2017-Jun-21 20:57N 37°11' E 024°50'818.9
2017-Jun-21 20:30N 37°15' E 024°59'918.4
2017-Jun-21 20:01N 37°22' E 025°07'917.4
2017-Jun-21 19:31N 37°28' E 025°15'3 6.3
2017-Jun-21 19:00N 37°28' E 025°19'0 0.0
2017-Jun-21 18:30N 37°28' E 025°19'0 0.0
2017-Jun-21 17:57N 37°28' E 025°19'0 0.0
2017-Jun-21 17:30N 37°28' E 025°19'0 0.0
2017-Jun-21 17:00N 37°28' E 025°19'0 0.0
2017-Jun-21 16:30N 37°28' E 025°19'0 0.0
2017-Jun-21 15:54N 37°28' E 025°19'0 0.0
2017-Jun-21 15:30N 37°28' E 025°19'0 0.0
2017-Jun-21 15:00N 37°28' E 025°19'0 0.0
2017-Jun-21 14:30N 37°28' E 025°19'0 0.0
2017-Jun-21 13:30N 37°28' E 025°19'0 0.0
2017-Jun-21 12:57N 37°28' E 025°19'0 0.0
2017-Jun-21 12:30N 37°28' E 025°19'0 0.0
2017-Jun-21 12:00N 37°28' E 025°19'0 0.0
2017-Jun-21 11:30N 37°28' E 025°19'0 0.0
2017-Jun-21 10:57N 37°28' E 025°19'0 0.0
2017-Jun-21 10:30N 37°28' E 025°19'0 0.0
2017-Jun-21 09:51N 37°28' E 025°19'0 0.0
2017-Jun-21 09:30N 37°28' E 025°19'0 0.0
2017-Jun-21 09:00N 37°28' E 025°19'0 0.0
2017-Jun-21 08:24N 37°28' E 025°19'0 0.0
2017-Jun-21 08:00N 37°28' E 025°19'0 0.0
2017-Jun-21 07:30N 37°28' E 025°19'0 0.0
2017-Jun-21 07:00N 37°28' E 025°19'0 0.0
2017-Jun-21 06:15N 37°28' E 025°19'0 0.0
2017-Jun-21 05:57N 37°28' E 025°19'0 0.0
2017-Jun-21 05:30N 37°28' E 025°19'0 0.0
2017-Jun-21 05:00N 37°28' E 025°19'0 0.0
2017-Jun-21 04:30N 37°28' E 025°19'0 0.1
2017-Jun-21 04:00N 37°28' E 025°19'2 4.3
2017-Jun-21 03:30N 37°28' E 025°17'713.2
2017-Jun-21 03:00N 37°25' E 025°09'815.7
2017-Jun-21 02:30N 37°17' E 025°06'815.5
2017-Jun-21 02:00N 37°14' E 024°57'3916.7
2017-Jun-20 23:40N 36°55' E 024°15'317.0
2017-Jun-20 23:30N 36°53' E 024°12'  
2017-Jun-18 18:26N 43°49' E 014°19'921.6
2017-Jun-18 18:00N 43°56' E 014°12'1121.4
2017-Jun-18 17:30N 44°05' E 014°03'1121.6
2017-Jun-18 17:00N 44°14' E 013°55'1122.0
2017-Jun-18 16:30N 44°23' E 013°46'1121.9
2017-Jun-18 16:00N 44°32' E 013°38'1121.9
2017-Jun-18 15:30N 44°41' E 013°29'1121.8
2017-Jun-18 15:00N 44°50' E 013°21'1121.7
2017-Jun-18 14:30N 44°59' E 013°12'1121.5
2017-Jun-18 14:00N 45°08' E 013°04'1121.2
2017-Jun-18 13:30N 45°19' E 013°00'1020.8
2017-Jun-18 13:00N 45°27' E 013°08'1020.4
2017-Jun-18 12:30N 45°33' E 013°20'1020.1
2017-Jun-18 12:00N 45°38' E 013°32'816.3
2017-Jun-18 11:30N 45°39' E 013°44'2 3.1
2017-Jun-18 11:00N 45°39' E 013°46'0 0.0
2017-Jun-18 10:23N 45°39' E 013°46'0 0.0
2017-Jun-18 09:50N 45°39' E 013°46'0 0.0
2017-Jun-18 09:29N 45°39' E 013°46'0 0.0
2017-Jun-18 08:59N 45°39' E 013°46'0 0.0
2017-Jun-18 08:29N 45°39' E 013°46'0 0.0
2017-Jun-18 07:59N 45°39' E 013°46'0 0.0
2017-Jun-18 07:29N 45°39' E 013°46'0 0.0
2017-Jun-18 06:56N 45°39' E 013°46'0 0.0
2017-Jun-18 06:29N 45°39' E 013°46'0 0.0
2017-Jun-18 05:59N 45°39' E 013°46'0 0.0
2017-Jun-18 05:29N 45°39' E 013°46'0 0.0
2017-Jun-18 04:59N 45°39' E 013°46'0 0.0
2017-Jun-18 04:30N 45°39' E 013°46'2 4.0
2017-Jun-18 04:00N 45°39' E 013°43'4 8.5
2017-Jun-18 03:30N 45°38' E 013°37'5 9.8
2017-Jun-18 03:00N 45°35' E 013°32'5 9.8
2017-Jun-18 02:30N 45°32' E 013°26'5 9.6
2017-Jun-18 02:00N 45°30' E 013°20'5 9.3
2017-Jun-18 01:30N 45°28' E 013°14'5 9.3
2017-Jun-18 01:00N 45°26' E 013°07'5 9.2
2017-Jun-18 00:30N 45°25' E 013°01'4 8.8
2017-Jun-18 00:00N 45°22' E 012°56'5 9.2
2017-Jun-17 23:30N 45°18' E 012°52'5 9.0
2017-Jun-17 23:00N 45°15' E 012°48'4 9.0
2017-Jun-17 22:30N 45°11' E 012°44'4 8.7
2017-Jun-17 22:00N 45°08' E 012°40'4 8.3
2017-Jun-17 21:30N 45°10' E 012°35'4 8.0
2017-Jun-17 21:00N 45°13' E 012°30'4 8.9
2017-Jun-17 20:30N 45°17' E 012°30'5 9.0
2017-Jun-17 20:00N 45°21' E 012°30'4 8.1
2017-Jun-17 19:30N 45°25' E 012°27'4 7.1
2017-Jun-17 19:00N 45°25' E 012°22'3 5.2
2017-Jun-17 18:31N 45°26' E 012°18'0 0.9
2017-Jun-17 17:58N 45°26' E 012°18'0 0.0
2017-Jun-17 17:28N 45°26' E 012°18'0 0.0
2017-Jun-17 16:58N 45°26' E 012°18'0 0.0
2017-Jun-17 16:25N 45°26' E 012°18'0 0.0
2017-Jun-17 15:55N 45°26' E 012°18'0 0.0
2017-Jun-17 15:28N 45°26' E 012°18'0 0.0
2017-Jun-17 14:58N 45°26' E 012°18'0 0.0
2017-Jun-17 13:58N 45°26' E 012°18'0 0.0
2017-Jun-17 13:25N 45°26' E 012°18'0 0.0
2017-Jun-17 12:55N 45°26' E 012°18'0 0.0
2017-Jun-17 12:25N 45°26' E 012°18'0 0.0
2017-Jun-17 11:58N 45°26' E 012°18'0 0.0
2017-Jun-17 11:25N 45°26' E 012°18'0 0.0
2017-Jun-17 10:55N 45°26' E 012°18'0 0.0
2017-Jun-17 10:25N 45°26' E 012°18'0 0.0
2017-Jun-17 09:58N 45°26' E 012°18'0 0.0
2017-Jun-17 09:22N 45°26' E 012°18'0 0.0
2017-Jun-17 08:58N 45°26' E 012°18'0 0.0
2017-Jun-17 08:28N 45°26' E 012°18'0 0.0
2017-Jun-17 07:43N 45°26' E 012°18'0 0.0
2017-Jun-17 07:22N 45°26' E 012°18'0 0.0
2017-Jun-17 06:58N 45°26' E 012°18'0 0.3
2017-Jun-17 06:30N 45°26' E 012°18'2 3.3
2017-Jun-17 06:00N 45°26' E 012°21'3 5.4
2017-Jun-17 05:30N 45°26' E 012°24'5 9.3
2017-Jun-17 05:00N 45°24' E 012°30'917.5
2017-Jun-17 04:30N 45°16' E 012°35'1019.6
2017-Jun-17 04:00N 45°09' E 012°45'1019.3
2017-Jun-17 03:30N 45°01' E 012°52'1019.1
2017-Jun-17 03:00N 44°52' E 012°58'918.9
2017-Jun-17 02:30N 44°43' E 013°03'919.0
2017-Jun-17 02:00N 44°34' E 013°07'1019.0
2017-Jun-17 01:30N 44°25' E 013°12'918.7
2017-Jun-17 01:00N 44°17' E 013°17'1019.1
2017-Jun-17 00:30N 44°11' E 013°28'2419.3
2017-Jun-16 23:17N 43°57' E 013°54'519.4
2017-Jun-16 23:00N 43°54' E 014°00'1219.5
2017-Jun-16 22:22N 43°47' E 014°15'1719.5
2017-Jun-16 21:31N 43°40' E 014°36'020.4
2017-Jun-16 21:30N 43°40' E 014°36'36312.3
2017-Jun-15 16:02N 38°56' E 019°39'219.0
2017-Jun-15 15:57N 38°55' E 019°40'919.1
2017-Jun-15 15:30N 38°47' E 019°43'919.2
2017-Jun-15 15:00N 38°38' E 019°47'1019.4
2017-Jun-15 14:30N 38°28' E 019°49'2219.1
2017-Jun-15 13:22N 38°08' E 020°01'718.9
2017-Jun-15 12:59N 38°02' E 020°05'919.0
2017-Jun-15 12:30N 37°53' E 020°09'919.0
2017-Jun-15 12:00N 37°44' E 020°13'1018.9
2017-Jun-15 11:30N 37°35' E 020°17'4018.4
2017-Jun-15 09:20N 37°07' E 020°52'818.7
2017-Jun-15 08:55N 37°02' E 020°59'918.8
2017-Jun-15 08:28N 36°56' E 021°08'918.8
2017-Jun-15 08:00N 36°50' E 021°15'918.6
2017-Jun-15 07:30N 36°44' E 021°24'918.5
2017-Jun-15 07:00N 36°38' E 021°33'1618.1
2017-Jun-15 06:09N 36°32' E 021°51'318.3
2017-Jun-15 05:58N 36°31' E 021°54'1018.2
2017-Jun-15 05:25N 36°27' E 022°06'918.3
2017-Jun-15 04:56N 36°23' E 022°16'6217.4
2017-Jun-15 01:23N 36°33' E 023°32'719.6
2017-Jun-15 01:00N 36°37' E 023°40'1019.5
2017-Jun-15 00:30N 36°42' E 023°50'5619.4
2017-Jun-14 21:37N 37°11' E 024°50'219.2
2017-Jun-14 21:30N 37°12' E 024°52'1019.4
2017-Jun-14 21:00N 37°17' E 025°03'1019.3
2017-Jun-14 20:30N 37°25' E 025°09'714.9
2017-Jun-14 20:00N 37°28' E 025°18'1 2.0
2017-Jun-14 19:27N 37°28' E 025°19'0 0.0
2017-Jun-14 18:57N 37°28' E 025°19'0 0.0
2017-Jun-14 18:27N 37°28' E 025°19'0 0.0
2017-Jun-14 17:57N 37°28' E 025°19'0 0.0
2017-Jun-14 17:27N 37°28' E 025°19'0 0.0
2017-Jun-14 16:57N 37°28' E 025°19'0 0.0
2017-Jun-14 16:27N 37°28' E 025°19'0 0.0
2017-Jun-14 15:57N 37°28' E 025°19'0 0.0
2017-Jun-14 15:27N 37°28' E 025°19'0 0.0
2017-Jun-14 14:57N 37°28' E 025°19'0 0.0
2017-Jun-14 13:57N 37°28' E 025°19'0 0.0
2017-Jun-14 13:27N 37°28' E 025°19'0 0.0
2017-Jun-14 12:57N 37°28' E 025°19'0 0.0
2017-Jun-14 12:27N 37°28' E 025°19'0 0.0
2017-Jun-14 11:57N 37°28' E 025°19'0 0.0
2017-Jun-14 11:27N 37°28' E 025°19'0 0.1
2017-Jun-14 10:57N 37°28' E 025°19'0 0.0
2017-Jun-14 10:21N 37°28' E 025°19'0 0.1
2017-Jun-14 09:57N 37°28' E 025°19'0 0.0
2017-Jun-14 08:45N 37°28' E 025°19'0 0.1
2017-Jun-14 08:21N 37°28' E 025°19'0 0.0
2017-Jun-14 07:51N 37°28' E 025°19'0 0.0
2017-Jun-14 07:21N 37°28' E 025°19'0 0.1
2017-Jun-14 06:57N 37°28' E 025°19'0 0.0
2017-Jun-14 06:27N 37°28' E 025°19'0 0.0
2017-Jun-14 05:57N 37°28' E 025°19'0 0.0
2017-Jun-14 05:27N 37°28' E 025°19'0 0.3
2017-Jun-14 04:57N 37°28' E 025°19'0 0.2
2017-Jun-14 04:30N 37°28' E 025°19'2 4.1
2017-Jun-14 04:00N 37°28' E 025°16'612.5
2017-Jun-14 03:30N 37°26' E 025°09'714.3
2017-Jun-14 03:00N 37°19' E 025°07'612.9
2017-Jun-14 02:31N 37°15' E 025°00'814.3
2017-Jun-14 01:59N 37°12' E 024°52'  
Track history (hours):
 
Tides and Currents Weather Stations Pressure Air Temp Water Temp Dewpoint Dewpoint Depression Visibility Wind Speed Wind Dir Waves Ship Positions

Costa Luminosa

Last reported at 2017-Jun-23 18:53 UTC. Time now 2017-Jun-23 19:00 UTC.
Position N 43°19' E 015°16'.

Length 294 m; draft 8 m.

Type: Passenger vessel. MMSI: 247257900.

Date/timePositionNaut miles runAvg speedWind from/ knotsBaromVisibWave heightAir tempDewpointWater temp
2017-Jun-23 18:53N 43°19' E 015°16'1219.0
2017-Jun-23 18:16N 43°13' E 015°30'719.3
2017-Jun-23 17:54N 43°09' E 015°38'1019.1
2017-Jun-23 17:21N 43°03' E 015°50'819.2
2017-Jun-23 16:55N 42°56' E 015°57'919.0
2017-Jun-23 16:28N 42°51' E 016°06'918.8
2017-Jun-23 16:00N 42°47' E 016°16'1018.8
2017-Jun-23 15:28N 42°42' E 016°28'919.0
2017-Jun-23 14:59N 42°40' E 016°41'1918.9
2017-Jun-23 13:57N 42°39' E 017°07'129 8.1
2017-Jun-22 22:02N 40°54' E 018°47'619.3
2017-Jun-22 21:43N 40°48' E 018°49'419.3
2017-Jun-22 21:30N 40°44' E 018°51'918.6
2017-Jun-22 21:01N 40°35' E 018°54'1019.0
2017-Jun-22 20:31N 40°26' E 018°57'2418.7
2017-Jun-22 19:14N 40°03' E 019°07'918.2
2017-Jun-22 18:45N 39°55' E 019°11'518.4
2017-Jun-22 18:29N 39°50' E 019°13'918.3
2017-Jun-22 18:00N 39°42' E 019°17'5218.4
2017-Jun-22 15:10N 38°53' E 019°40'318.3
2017-Jun-22 15:01N 38°51' E 019°42'918.3
2017-Jun-22 14:30N 38°42' E 019°45'1918.9
2017-Jun-22 13:30N 38°24' E 019°54'918.4
2017-Jun-22 13:00N 38°16' E 019°58'2818.5
2017-Jun-22 11:31N 37°50' E 020°10'019.4
2017-Jun-22 11:30N 37°50' E 020°10'1918.7
2017-Jun-22 10:30N 37°32' E 020°19'12118.8
2017-Jun-22 04:03N 36°20' E 022°21'118.7
2017-Jun-22 03:58N 36°19' E 022°22'12918.4
2017-Jun-21 20:57N 37°11' E 024°50'818.9
2017-Jun-21 20:30N 37°15' E 024°59'918.4
2017-Jun-21 20:01N 37°22' E 025°07'917.4
2017-Jun-21 19:31N 37°28' E 025°15'3 6.3
2017-Jun-21 19:00N 37°28' E 025°19'0 0.0
2017-Jun-21 18:30N 37°28' E 025°19'0 0.0
2017-Jun-21 17:57N 37°28' E 025°19'0 0.0
2017-Jun-21 17:30N 37°28' E 025°19'0 0.0
2017-Jun-21 17:00N 37°28' E 025°19'0 0.0
2017-Jun-21 16:30N 37°28' E 025°19'0 0.0
2017-Jun-21 15:54N 37°28' E 025°19'0 0.0
2017-Jun-21 15:30N 37°28' E 025°19'0 0.0
2017-Jun-21 15:00N 37°28' E 025°19'0 0.0
2017-Jun-21 14:30N 37°28' E 025°19'0 0.0
2017-Jun-21 13:30N 37°28' E 025°19'0 0.0
2017-Jun-21 12:57N 37°28' E 025°19'0 0.0
2017-Jun-21 12:30N 37°28' E 025°19'0 0.0
2017-Jun-21 12:00N 37°28' E 025°19'0 0.0
2017-Jun-21 11:30N 37°28' E 025°19'0 0.0
2017-Jun-21 10:57N 37°28' E 025°19'0 0.0
2017-Jun-21 10:30N 37°28' E 025°19'0 0.0
2017-Jun-21 09:51N 37°28' E 025°19'0 0.0
2017-Jun-21 09:30N 37°28' E 025°19'0 0.0
2017-Jun-21 09:00N 37°28' E 025°19'0 0.0
2017-Jun-21 08:24N 37°28' E 025°19'0 0.0
2017-Jun-21 08:00N 37°28' E 025°19'0 0.0
2017-Jun-21 07:30N 37°28' E 025°19'0 0.0
2017-Jun-21 07:00N 37°28' E 025°19'0 0.0
2017-Jun-21 06:15N 37°28' E 025°19'0 0.0
2017-Jun-21 05:57N 37°28' E 025°19'0 0.0
2017-Jun-21 05:30N 37°28' E 025°19'0 0.0
2017-Jun-21 05:00N 37°28' E 025°19'0 0.0
2017-Jun-21 04:30N 37°28' E 025°19'0 0.1
2017-Jun-21 04:00N 37°28' E 025°19'2 4.3
2017-Jun-21 03:30N 37°28' E 025°17'713.2
2017-Jun-21 03:00N 37°25' E 025°09'815.7
2017-Jun-21 02:30N 37°17' E 025°06'815.5
2017-Jun-21 02:00N 37°14' E 024°57'3916.7
2017-Jun-20 23:40N 36°55' E 024°15'317.0
2017-Jun-20 23:30N 36°53' E 024°12'  
2017-Jun-18 18:26N 43°49' E 014°19'921.6
2017-Jun-18 18:00N 43°56' E 014°12'1121.4
2017-Jun-18 17:30N 44°05' E 014°03'1121.6
2017-Jun-18 17:00N 44°14' E 013°55'1122.0
2017-Jun-18 16:30N 44°23' E 013°46'1121.9
2017-Jun-18 16:00N 44°32' E 013°38'1121.9
2017-Jun-18 15:30N 44°41' E 013°29'1121.8
2017-Jun-18 15:00N 44°50' E 013°21'1121.7
2017-Jun-18 14:30N 44°59' E 013°12'1121.5
2017-Jun-18 14:00N 45°08' E 013°04'1121.2
2017-Jun-18 13:30N 45°19' E 013°00'1020.8
2017-Jun-18 13:00N 45°27' E 013°08'1020.4
2017-Jun-18 12:30N 45°33' E 013°20'1020.1
2017-Jun-18 12:00N 45°38' E 013°32'816.3
2017-Jun-18 11:30N 45°39' E 013°44'2 3.1
2017-Jun-18 11:00N 45°39' E 013°46'0 0.0
2017-Jun-18 10:23N 45°39' E 013°46'0 0.0
2017-Jun-18 09:50N 45°39' E 013°46'0 0.0
2017-Jun-18 09:29N 45°39' E 013°46'0 0.0
2017-Jun-18 08:59N 45°39' E 013°46'0 0.0
2017-Jun-18 08:29N 45°39' E 013°46'0 0.0
2017-Jun-18 07:59N 45°39' E 013°46'0 0.0
2017-Jun-18 07:29N 45°39' E 013°46'0 0.0
2017-Jun-18 06:56N 45°39' E 013°46'0 0.0
2017-Jun-18 06:29N 45°39' E 013°46'0 0.0
2017-Jun-18 05:59N 45°39' E 013°46'0 0.0
2017-Jun-18 05:29N 45°39' E 013°46'0 0.0
2017-Jun-18 04:59N 45°39' E 013°46'0 0.0
2017-Jun-18 04:30N 45°39' E 013°46'2 4.0
2017-Jun-18 04:00N 45°39' E 013°43'4 8.5
2017-Jun-18 03:30N 45°38' E 013°37'5 9.8
2017-Jun-18 03:00N 45°35' E 013°32'5 9.8
2017-Jun-18 02:30N 45°32' E 013°26'5 9.6
2017-Jun-18 02:00N 45°30' E 013°20'5 9.3
2017-Jun-18 01:30N 45°28' E 013°14'5 9.3
2017-Jun-18 01:00N 45°26' E 013°07'5 9.2
2017-Jun-18 00:30N 45°25' E 013°01'4 8.8
2017-Jun-18 00:00N 45°22' E 012°56'5 9.2
2017-Jun-17 23:30N 45°18' E 012°52'5 9.0
2017-Jun-17 23:00N 45°15' E 012°48'4 9.0
2017-Jun-17 22:30N 45°11' E 012°44'4 8.7
2017-Jun-17 22:00N 45°08' E 012°40'4 8.3
2017-Jun-17 21:30N 45°10' E 012°35'4 8.0
2017-Jun-17 21:00N 45°13' E 012°30'4 8.9
2017-Jun-17 20:30N 45°17' E 012°30'5 9.0
2017-Jun-17 20:00N 45°21' E 012°30'4 8.1
2017-Jun-17 19:30N 45°25' E 012°27'4 7.1
2017-Jun-17 19:00N 45°25' E 012°22'3 5.2
2017-Jun-17 18:31N 45°26' E 012°18'0 0.9
2017-Jun-17 17:58N 45°26' E 012°18'0 0.0
2017-Jun-17 17:28N 45°26' E 012°18'0 0.0
2017-Jun-17 16:58N 45°26' E 012°18'0 0.0
2017-Jun-17 16:25N 45°26' E 012°18'0 0.0
2017-Jun-17 15:55N 45°26' E 012°18'0 0.0
2017-Jun-17 15:28N 45°26' E 012°18'0 0.0
2017-Jun-17 14:58N 45°26' E 012°18'0 0.0
2017-Jun-17 13:58N 45°26' E 012°18'0 0.0
2017-Jun-17 13:25N 45°26' E 012°18'0 0.0
2017-Jun-17 12:55N 45°26' E 012°18'0 0.0
2017-Jun-17 12:25N 45°26' E 012°18'0 0.0
2017-Jun-17 11:58N 45°26' E 012°18'0 0.0
2017-Jun-17 11:25N 45°26' E 012°18'0 0.0
2017-Jun-17 10:55N 45°26' E 012°18'0 0.0
2017-Jun-17 10:25N 45°26' E 012°18'0 0.0
2017-Jun-17 09:58N 45°26' E 012°18'0 0.0
2017-Jun-17 09:22N 45°26' E 012°18'0 0.0
2017-Jun-17 08:58N 45°26' E 012°18'0 0.0
2017-Jun-17 08:28N 45°26' E 012°18'0 0.0
2017-Jun-17 07:43N 45°26' E 012°18'0 0.0
2017-Jun-17 07:22N 45°26' E 012°18'0 0.0
2017-Jun-17 06:58N 45°26' E 012°18'0 0.3
2017-Jun-17 06:30N 45°26' E 012°18'2 3.3
2017-Jun-17 06:00N 45°26' E 012°21'3 5.4
2017-Jun-17 05:30N 45°26' E 012°24'5 9.3
2017-Jun-17 05:00N 45°24' E 012°30'917.5
2017-Jun-17 04:30N 45°16' E 012°35'1019.6
2017-Jun-17 04:00N 45°09' E 012°45'1019.3
2017-Jun-17 03:30N 45°01' E 012°52'1019.1
2017-Jun-17 03:00N 44°52' E 012°58'918.9
2017-Jun-17 02:30N 44°43' E 013°03'919.0
2017-Jun-17 02:00N 44°34' E 013°07'1019.0
2017-Jun-17 01:30N 44°25' E 013°12'918.7
2017-Jun-17 01:00N 44°17' E 013°17'1019.1
2017-Jun-17 00:30N 44°11' E 013°28'2419.3
2017-Jun-16 23:17N 43°57' E 013°54'519.4
2017-Jun-16 23:00N 43°54' E 014°00'1219.5
2017-Jun-16 22:22N 43°47' E 014°15'1719.5
2017-Jun-16 21:31N 43°40' E 014°36'020.4
2017-Jun-16 21:30N 43°40' E 014°36'36312.3
2017-Jun-15 16:02N 38°56' E 019°39'219.0
2017-Jun-15 15:57N 38°55' E 019°40'919.1
2017-Jun-15 15:30N 38°47' E 019°43'919.2
2017-Jun-15 15:00N 38°38' E 019°47'1019.4
2017-Jun-15 14:30N 38°28' E 019°49'2219.1
2017-Jun-15 13:22N 38°08' E 020°01'718.9
2017-Jun-15 12:59N 38°02' E 020°05'919.0
2017-Jun-15 12:30N 37°53' E 020°09'919.0
2017-Jun-15 12:00N 37°44' E 020°13'1018.9
2017-Jun-15 11:30N 37°35' E 020°17'4018.4
2017-Jun-15 09:20N 37°07' E 020°52'818.7
2017-Jun-15 08:55N 37°02' E 020°59'918.8
2017-Jun-15 08:28N 36°56' E 021°08'918.8
2017-Jun-15 08:00N 36°50' E 021°15'918.6
2017-Jun-15 07:30N 36°44' E 021°24'918.5
2017-Jun-15 07:00N 36°38' E 021°33'1618.1
2017-Jun-15 06:09N 36°32' E 021°51'318.3
2017-Jun-15 05:58N 36°31' E 021°54'1018.2
2017-Jun-15 05:25N 36°27' E 022°06'918.3
2017-Jun-15 04:56N 36°23' E 022°16'6217.4
2017-Jun-15 01:23N 36°33' E 023°32'719.6
2017-Jun-15 01:00N 36°37' E 023°40'1019.5
2017-Jun-15 00:30N 36°42' E 023°50'5619.4
2017-Jun-14 21:37N 37°11' E 024°50'219.2
2017-Jun-14 21:30N 37°12' E 024°52'1019.4
2017-Jun-14 21:00N 37°17' E 025°03'1019.3
2017-Jun-14 20:30N 37°25' E 025°09'714.9
2017-Jun-14 20:00N 37°28' E 025°18'1 2.0
2017-Jun-14 19:27N 37°28' E 025°19'0 0.0
2017-Jun-14 18:57N 37°28' E 025°19'0 0.0
2017-Jun-14 18:27N 37°28' E 025°19'0 0.0
2017-Jun-14 17:57N 37°28' E 025°19'0 0.0
2017-Jun-14 17:27N 37°28' E 025°19'0 0.0
2017-Jun-14 16:57N 37°28' E 025°19'0 0.0
2017-Jun-14 16:27N 37°28' E 025°19'0 0.0
2017-Jun-14 15:57N 37°28' E 025°19'0 0.0
2017-Jun-14 15:27N 37°28' E 025°19'0 0.0
2017-Jun-14 14:57N 37°28' E 025°19'0 0.0
2017-Jun-14 13:57N 37°28' E 025°19'0 0.0
2017-Jun-14 13:27N 37°28' E 025°19'0 0.0
2017-Jun-14 12:57N 37°28' E 025°19'0 0.0
2017-Jun-14 12:27N 37°28' E 025°19'0 0.0
2017-Jun-14 11:57N 37°28' E 025°19'0 0.0
2017-Jun-14 11:27N 37°28' E 025°19'0 0.1
2017-Jun-14 10:57N 37°28' E 025°19'0 0.0
2017-Jun-14 10:21N 37°28' E 025°19'0 0.1
2017-Jun-14 09:57N 37°28' E 025°19'0 0.0
2017-Jun-14 08:45N 37°28' E 025°19'0 0.1
2017-Jun-14 08:21N 37°28' E 025°19'0 0.0
2017-Jun-14 07:51N 37°28' E 025°19'0 0.0
2017-Jun-14 07:21N 37°28' E 025°19'0 0.1
2017-Jun-14 06:57N 37°28' E 025°19'0 0.0
2017-Jun-14 06:27N 37°28' E 025°19'0 0.0
2017-Jun-14 05:57N 37°28' E 025°19'0 0.0
2017-Jun-14 05:27N 37°28' E 025°19'0 0.3
2017-Jun-14 04:57N 37°28' E 025°19'0 0.2
2017-Jun-14 04:30N 37°28' E 025°19'2 4.1
2017-Jun-14 04:00N 37°28' E 025°16'612.5
2017-Jun-14 03:30N 37°26' E 025°09'714.3
2017-Jun-14 03:00N 37°19' E 025°07'612.9
2017-Jun-14 02:31N 37°15' E 025°00'814.3
2017-Jun-14 01:59N 37°12' E 024°52'  

Dump ship's entire track history